CKU weather

Cordova Municipal Airport
Cordova, Alaska, United States

Public forecast

Using degrees Fahrenheit for public forecast. Weather courtesy of forecast.io.

Closest aviation weather report (METAR) to Cordova Municipal Airport

Closest report is Merle K (Mudhole) Smith Airport, 8.0 nm (14.8 km) ESE. Retrieved 2020/05/29 06:53 UTC (1 hour ago):

PACV 290653Z 10004KT 10SM SCT150 12/06 A3000 RMK AO2 SLP158 T01170061

Closest aviation forecast (TAF) to Cordova Municipal Airport

Closest forecast is Merle K (Mudhole) Smith Airport, 8.0 nm (14.8 km) ESE. Retrieved 2020/05/29 06:36 UTC (1 hour ago):

TAF PACV 290534Z 2906/3006 27006KT P6SM SCT150 FM291500 VRB04KT P6SM BKN050